Southampton, Canada
Current Conditions -  °F | °C
As of 10:00 AM on Tuesday 21 Oct 2014 (Local Time) from CYVV Reporting Station
Overcast Overcast  
Wind Chill: 37°   Ceiling: 800
Heat Index: 43°   Visibility: 15mi
Dew Point: 41°   Wind: 10mph
Humidity: 93%   Direction: 30°NNE
Pressure: 29.97"   Gusts: 20mph
Location:  44.5°N, 81.37°W
Report Text: CYVV 211400Z 03009G17KT 350V050 15SM OVC008 06/05 A2997 RMK SF8OCNL -SHRA SLP154
Loading
Personal Weather Stations






























Interactive Weather Map
Tropical Storm Tracking
New forecast layout! Learn more

10-Day Weather Forecast

Advertisements
Track Severe Weather on mobile